createdAt,value
2022-07-26T00:01:41.488Z,1279.38568
2022-07-26T00:16:43.928Z,1267.92165
2022-07-26T00:31:46.325Z,1218.77742
2022-07-26T00:46:48.688Z,1222.991
2022-07-26T01:01:51.150Z,1248.89724
2022-07-26T01:16:53.572Z,1175.24967
2022-07-26T01:31:55.834Z,1081.80478
2022-07-26T01:46:58.195Z,1037.39053
2022-07-26T02:02:00.680Z,1002.83537
2022-07-26T02:17:03.032Z,1014.33742
2022-07-26T02:32:05.305Z,967.85276
2022-07-26T02:47:07.617Z,986.75085
2022-07-26T03:02:09.933Z,945.85611
2022-07-26T03:17:12.251Z,716.10304
2022-07-26T03:32:14.514Z,697.03522
2022-07-26T03:47:16.807Z,577.44593
2022-07-26T04:02:19.154Z,591.95461
2022-07-26T04:17:21.623Z,555.21904
2022-07-26T04:32:23.933Z,564.53182
2022-07-26T04:47:26.254Z,511.42829
2022-07-26T05:02:28.682Z,478.2097
2022-07-26T05:17:31.128Z,475.31536
2022-07-26T05:32:37.565Z,463.77557
2022-07-26T05:47:39.843Z,492.88279
2022-07-26T06:02:42.214Z,492.88279
2022-07-26T06:17:44.641Z,492.53932
2022-07-26T06:32:47.047Z,486.77268
2022-07-26T06:47:49.352Z,477.56348
2022-07-26T07:02:51.860Z,474.67693
2022-07-26T07:17:54.124Z,456.8804
2022-07-26T07:32:56.554Z,433.08457
2022-07-26T07:47:59.000Z,427.06588
2022-07-26T08:03:01.266Z,428.36002
2022-07-26T08:18:03.621Z,390.06297
2022-07-26T08:33:08.858Z,359.33103
2022-07-26T08:48:18.396Z,336.39171
2022-07-26T09:03:21.141Z,316.78153
2022-07-26T09:18:23.515Z,303.51148
2022-07-26T09:33:26.648Z,308.08222
2022-07-26T09:48:36.509Z,287.69381
2022-07-26T10:03:48.717Z,280.72702
2022-07-26T10:18:51.062Z,279.59857
2022-07-26T10:33:53.639Z,279.37396
2022-07-26T10:48:56.099Z,306.18358
2022-07-26T11:03:58.444Z,305.6454
2022-07-26T11:19:00.725Z,283.93572
2022-07-26T11:34:02.976Z,273.65833
2022-07-26T11:49:05.530Z,286.27292
2022-07-26T12:04:08.458Z,294.76513
2022-07-26T12:19:11.161Z,291.79733
2022-07-26T12:34:13.966Z,298.30479
2022-07-26T12:49:16.661Z,297.53915
2022-07-26T13:04:19.266Z,287.21861
2022-07-26T13:19:21.540Z,298.8174
2022-07-26T13:34:23.851Z,289.6104
2022-07-26T13:49:26.256Z,286.74499
2022-07-26T14:04:29.117Z,278.92583
2022-07-26T14:19:31.549Z,314.20573
2022-07-26T14:34:33.827Z,311.67147
2022-07-26T14:49:36.243Z,332.85024
2022-07-26T15:04:38.519Z,339.67726
2022-07-26T15:19:40.862Z,360.4483
2022-07-26T15:34:43.163Z,363.84216
2022-07-26T15:49:45.503Z,366.52635
2022-07-26T16:04:47.818Z,389.41824
2022-07-26T16:19:51.102Z,416.98764
2022-07-26T16:34:53.404Z,431.23491
2022-07-26T16:49:55.705Z,467.45632
2022-07-26T17:04:58.175Z,473.72249
2022-07-26T17:20:00.514Z,489.46948
2022-07-26T17:35:02.780Z,498.09296
2022-07-26T18:05:41.079Z,529.43361
2022-07-26T18:20:43.829Z,543.68758
2022-07-26T18:35:46.153Z,552.61442
2022-07-26T18:50:48.413Z,585.09421
2022-07-26T19:05:53.270Z,565.88778
2022-07-26T19:20:55.696Z,581.24491
2022-07-26T19:35:57.993Z,576.97455
2022-07-26T19:51:00.288Z,577.91809
2022-07-26T20:06:02.657Z,578.86472
2022-07-26T20:21:04.973Z,554.78324
2022-07-26T20:36:07.404Z,598.47062
2022-07-26T20:51:13.712Z,531.82383
2022-07-26T21:06:16.435Z,617.82673
2022-07-26T21:21:18.755Z,586.06452
2022-07-26T21:36:21.061Z,665.53083
2022-07-26T21:51:23.371Z,771.53812
2022-07-26T22:06:25.667Z,965.21196
2022-07-26T22:21:27.926Z,978.56205
2022-07-26T22:36:30.379Z,995.77812
2022-07-26T22:51:32.714Z,926.04762
2022-07-26T23:06:36.165Z,926.04762
2022-07-26T23:21:38.509Z,971.84116
2022-07-26T23:36:40.816Z,965.87081
2022-07-26T23:51:43.115Z,877.79206
